Nearby METAR Reports

KBIS - Bismarck, North Dakota, USA
Distance from station: S 10mi, 15km
Updated: Fri, 12-Apr-2024 5:52pm CDT
Clear
Clear
 Wind from SSE
Wind: SSE 18 mph, 30 km/h, Gust: 28 mph, 44 km/h
Temperature: 66°F, 19°C
Dew Point: 27°F, -3°C
Humidity: 22%
Barometer: 29.89 inHg, 1012.2 hPa
Clouds: Clear
Visibility: 10 miles, 16 km
2024/04/12 22:52 KBIS 122252Z AUTO 15016G24KT 10SM CLR 19/M03 A2989 RMK AO2 PK WND 14027/2241 SLP132 T01891028
KDIK - Dickinson, North Dakota, USA
Distance from station: W 95mi, 154km
Updated: Fri, 12-Apr-2024 5:56pm CDT
Clear
Clear
 Wind from S
Wind: S 18 mph, 30 km/h, Gust: 31 mph, 50 km/h
Temperature: 73°F, 23°C
Dew Point: 28°F, -2°C
Humidity: 19%
Barometer: 29.78 inHg, 1008.5 hPa
Clouds: Clear
Visibility: 10 miles, 16 km
2024/04/12 22:56 KDIK 122256Z AUTO 18016G27KT 10SM CLR 23/M02 A2978 RMK AO2 PK WND 17029/2217 SLP086 T02281022
 
KGFK - Grand Forks, North Dakota, USA
Distance from station: NNW 76mi, 123km
Updated: Fri, 12-Apr-2024 5:53pm CDT
Partly cloudy
Partly cloudy
 Wind from S
Wind: S 8 mph, 13 km/h
Temperature: 59°F, 15°C
Dew Point: 27°F, -3°C
Humidity: 29%
Barometer: 29.99 inHg, 1015.6 hPa
Clouds: Partly cloudy
Visibility: 10 miles, 16 km
Cloud details: Few Clouds 6500 ft
Partly cloudy 25000 ft
2024/04/12 22:53 KGFK 122253Z 19007KT 10SM FEW065 SCT250 15/M03 A2999 RMK AO2 SLP161 T01501028
KXWA - Williston, North Dakota, USA
Distance from station: NNW 2mi, 2km
Updated: Fri, 12-Apr-2024 6:51pm CDT
Clear
Clear
 Wind from S
Wind: S 13 mph, 20 km/h
Temperature: 73°F, 23°C
Dew Point: 28°F, -2°C
Humidity: 19%
Barometer: 29.71 inHg, 1006.1 hPa
Clouds: Clear
Visibility: 10 miles, 16 km
2024/04/12 23:51 KXWA 122351Z AUTO 19011KT 10SM CLR 23/M02 A2971 RMK AO2 SLP070 T02331017 10239 20161 56021
 
KFAR - Fargo, North Dakota, USA
Distance from station: NNW 4mi, 7km
Updated: Fri, 12-Apr-2024 5:53pm CDT
Clear
Clear
 Wind from S
Wind: S 5 mph, 7 km/h
Temperature: 63°F, 17°C
Dew Point: 32°F, 0°C
Humidity: 32%
Barometer: 30.00 inHg, 1015.9 hPa
Clouds: Clear
Visibility: 10 miles, 16 km
2024/04/12 22:53 KFAR 122253Z 17004KT 10SM CLR 17/00 A3000 RMK AO2 SLP166 T01670000
KMOT - Minot, North Dakota, USA
Distance from station: E 109mi, 175km
Updated: Fri, 12-Apr-2024 5:54pm CDT
Clear
Clear
 Wind from SSE
Wind: SSE 18 mph, 30 km/h, Gust: 30 mph, 48 km/h
Temperature: 66°F, 19°C
Dew Point: 25°F, -4°C
Humidity: 21%
Barometer: 29.84 inHg, 1010.5 hPa
Clouds: Clear
Visibility: 10 miles, 16 km
2024/04/12 22:54 KMOT 122254Z 16016G26KT 10SM CLR 19/M04 A2984 RMK AO2 PK WND 15027/2213 SLP114 T01891044